Race Coverage Navigation

TS # 5 / Salome, AZ  2019

 


TS STATS
TS Distance 56.04 
Total Distance 342.46 
Miles To Go 2727.82 
TS Climbing 342 
Total Climbing
TS  Elevation
TS  Net Elevation 551 
Map Filename Open Map 
Directions Filename  
Latitude 33.79 
Longitude -113.61 
Google Map  TimeStation Map 


TS Arrival Data
Arr Ord  #/Name Arrival DT Ascending TS Dst Avg This TS Avg Overall
 1 R404 - Team Viasat - Carlsbad  06/12/2019 6:09 56.04  20.76  22.6 
 2 R403 - Team Viasat-Denver  06/12/2019 7:11 56.04  20.01  21.18 
 3 R401 - San Diego Sports Medicine/Zoca  06/12/2019 8:51 56.04  15.71  19.24 
 4 R200 - EY Legacy Builders 2019  06/12/2019 9:10 56.04  16.9  19.06 
 5 R205 - Team OB2  06/12/2019 9:40 56.04  17.7  18.48 
 6 R400 - HTX Velo Femme  06/12/2019 9:49 56.04  17.6  18.26 
 7 377 - Christoph Strasser  06/12/2019 9:51 56.04  18.37  19.91 
 8 279 - Marko Baloh  06/12/2019 10:49 56.04  16.09  18.83 
 9 R402 - SUWOS  06/12/2019 10:54 56.04  16.73  17.24 
 10 R201 - IN OUR PRIME  06/12/2019 11:22 56.04  15.35  16.97 
 11 612 - Markus K. Brandl  06/12/2019 11:42 56.04  16.17  17.65 
 12 R202 - Laureus Alegra  06/12/2019 11:43 56.04  15.15  16.66 
 13 617 - SOLO.kiwi (Craig Harper)  06/12/2019 11:43 56.04  16.32  17.58 
 14 R111 - Jennifer Orr  06/12/2019 11:49 56.04  15.79  16.68 
 15 R203 - Mike 'n' Jay Giretto con Amici  06/12/2019 11:58 56.04  14.75  16.45 
 16 R124 - Andres Rodriguez  06/12/2019 12:01 56.04  14.37  16.54 
 17 609 - Jakob Olsen  06/12/2019 12:15 56.04  16.65  17.21 
 18 R51 - Fabio Silvestri  06/12/2019 12:17 56.04  12.09  16.57 
 19 442 - Joe Barr  06/12/2019 12:18 56.04  14.75  17.31 
 20 349 - Mark Pattinson  06/12/2019 12:51 56.04  13.56  16.9 
 21 288 - Dave Haase  06/12/2019 12:58 56.04  16.09  16.83 
 22 529 - Isa Pulver  06/12/2019 13:00 56.04  13.72  16.37 
 23 603 - Alan Bradley  06/12/2019 13:01 56.04  14.31  16.6 
 24 R209 - Workhorses  06/12/2019 13:06 56.04  15.42  15.55 
 25 329 - Peter Oyler  06/12/2019 13:09 56.04  16.48  16.66 
 26 622 - Thomas Odom-Team Kyle Pease Foundation  06/12/2019 13:12 56.04  14.31  16.28 
 27 623 - Ultra Paka Racing Team (Daniel Polman)  06/12/2019 13:40 56.04  12.88  15.92 
 28 594 - Mauerhofer Thomas  06/12/2019 13:59 56.04  11.02  15.85 
 29 620 - Team Jefferson (Allan Jefferson)  06/12/2019 14:12 56.04  12.64  15.57 
 30 416 - Leah Goldstein  06/12/2019 14:15 56.04  15.49  15.46 
 31 161 - Seana Hogan  06/12/2019 14:25 56.04  12.78  15.37 
 32 R207 - We Might Make It!  06/12/2019 14:26 56.04  13.34  14.68 
 33 568 - Alexandra Meixner  06/12/2019 14:40 56.04  13.78  15.15 
 34 R121 - Ironmae (Rosecler Costa)  06/12/2019 14:43 56.04  10.35  14.58 
 35 621 - Themsen Ultracycling (Jacob Themsen)  06/12/2019 14:43 56.04  14.07  15.2 
 36 R106 - Damaceleste.com (Valentina Tanzi)  06/12/2019 14:47 56.04  13.67  14.59 
 37 618 - GREGORY ROBINSON  06/12/2019 15:05 56.04  13.89  14.98 
 38 615 - Philipp Amhof  06/12/2019 15:24 56.04  16.56  14.79 
 39 R104 - Team everve Christian (Christian Beichel)  06/12/2019 15:25 56.04  13.45  14.33 
 40 604 - Chieko Ozawa  06/12/2019 15:31 56.04  14.25  14.59 
 41 559 - Team Martin RAAM 2019 (Martin Bergmeister)  06/12/2019 15:32 56.04  14.31  14.83 
 42 539 - Kari Rouvinen  06/12/2019 15:51 56.04  11.84  14.64 
 43 R122 - Kirk Gentle  06/12/2019 16:34 56.04  8.06  13.58 
 44 608 - Elin Starup  06/12/2019 16:40 56.04  13.95  13.89 
 45 399 - Valerio Zamboni  06/12/2019 16:51 56.04  11.68  14.1 
 46 411 - Geoff Brunner  06/12/2019 16:53 56.04  11.8  14.07 
 47 R120 - Team Next Step (Peter Pedersen)  06/12/2019 16:55 56.04  11.25  13.4 
 48 605 - Christian Echavarria  06/12/2019 17:36 56.04  15.28  13.57 
 49 R115 - Kym Louie  06/12/2019 17:39 56.04  10.51  12.98 
 50 R103 - Chris Davies  06/12/2019 17:49 56.04  9.72  13.03 
 51 367 - Daniela Genovesi  06/12/2019 18:26 56.04  10.61  13.01 
 52 R119 - Team BlueLine (Martha Hall)  06/12/2019 19:16 56.04  9.24  12.22 
 53 R116 - Philippe May  06/12/2019 19:19 56.04  7.97  12.27 
 54 R84 - James Jason Ingels  06/12/2019 19:37 56.04  6.88  12.22 
 55 611 - Marcelo Soares " MIXIRICA "  06/12/2019 19:41 56.04  7.15  12.51 
 56 563 - Team Nico Ultracycling - In Fight against Cancer   06/12/2019 19:56 56.04  10.28  12.45 
 57 510 - John C. Tarlton  06/12/2019 20:13 56.04  7.46  12.35 
 58 610 - Kabir Rachure  06/12/2019 20:38 56.04  7.12  12.1 
 59 R105 - 2nd Chance Racing (Craig Johnson)  06/12/2019 21:31 56.04  8.2  11.41 
 60 R112 - John Hoopingarner  06/12/2019 21:49 56.04  8.41  11.28 
 61 424 - Team i RON man Veterans supporting Veterans  06/12/2019 22:14 56.04  9.83  11.53 
 62 R110 - James Golding  06/12/2019 22:16 56.04  7.2  11.12 
 63 607 - Sabine Bird (Team Bean)  06/12/2019 22:20 56.04  8.06  11.3 
 64 527 - TALABARDON (Herve Talabardon)  06/12/2019 23:11 56.04  6.71  11.15 
 65 R114 - Krishna Prakash  06/13/2019 0:05 56.04  6.1  10.48 
 66 R87 - Spoke Life Cycles / TRD (Lucas Spencer)  06/13/2019 0:41 56.04  8.04  10.35 
 67 R117 - ROGIE (Roger Foote)  06/13/2019 0:53 56.04  6.07  10.22 
 68 R108 - Eric C Pearce  06/13/2019 1:09 56.04  4.47  10.17 
 69 491 - BOURREAU JACQUES  06/13/2019 8:41 56.04  8.51  8.52 
 70 T800 - Backstedt Racing Project 14  06/16/2019 6:02 56.04  21.69  23.54 
 71 T401 - Data Techniques powered by Networks Centre  06/16/2019 6:07 56.04  21.55  22.93 
 72 T411 - team alpha - tischlerei groemmer  06/16/2019 6:14 56.04  22.12  23.01 
 73 T404 - Gentlemen of speed  06/16/2019 6:51 56.04  19.55  21.93 
 74 T201 - EAT WELL  06/16/2019 6:54 56.04  20.38  21.56 
 75 T805 - Team Oceanside  06/16/2019 7:46 56.04  21.15  21.14 
 76 T200 - AIR RELAX GoPro TEAM BRASIL  06/16/2019 7:47 56.04  20.26  20.4 
 77 T412 - Team Aspect  06/16/2019 7:55 56.04  19.78  20.69 
 78 T407 - Julian Becker   06/16/2019 8:02 56.04  20.5  20.45 
 79 T408 - Radeln-fuer-Kinder (Cycling-for-Kids)  06/16/2019 8:28 56.04  18.89  19.95 
 80 T807 - Team ZOE International  06/16/2019 8:30 56.04  19.44  20.26 
 81 T202 - Integra Medical - BAA Racing  06/16/2019 8:33 56.04  17.79  19.55 
 82 T802 - Scorchers  06/16/2019 8:36 56.04  20.63  20.05 
 83 T804 - Team FSHD Skyland Trail  06/16/2019 8:49 56.04  20.76  19.83 
 84 T406 - Operation Walk Midwest  06/16/2019 8:53 56.04  18.18  19.44 
 85 T400 - Cantastic4  06/16/2019 8:55 56.04  17.51  19.29 
 86 T418 - The Opportunists  06/16/2019 8:57 56.04  17.89  19.59 
 87 T416 - Team Rotary Raams Polio  06/16/2019 9:01 56.04  17.98  19.48 
 88 T410 - Soap-Aid  06/16/2019 9:05 56.04  18.89  19.29 
 89 T808 - Antonia's Friends 2019  06/16/2019 9:07 56.04  18.58  19.57 
 90 T206 - Project Linear Acceleration  06/16/2019 9:15 56.04  16.9  18.87 
 91 T403 - EKJ Denmark  06/16/2019 9:38 56.04  16.32  18.6 
 92 T415 - TEAM FIRE VELO 935  06/16/2019 10:16 56.04  15.94  18.17 
 93 T207 - Team Life Time  06/16/2019 10:24 56.04  15.28  17.76 
 94 T405 - High Rollers  06/16/2019 10:34 56.04  17.24  17.73 
 95 T803 - Team EndoPark  06/16/2019 10:39 56.04  16.48  17.91 
 96 T204 - Lucan CRC  06/16/2019 10:42 56.04  15.94  17.44 
 97 T413 - TEAM BRASIL - SKIPPER  06/16/2019 10:58 56.04  15.01  17.49 
 98 T414 - Brazil Nuts  06/16/2019 11:02 56.04  13.89  17.44 
 99 T402 - EA/WFP RAAM Team  06/16/2019 11:23 56.04  14.31  16.97 
 100 T417 - Team4RAAM 2019 powered by TGW Living Logistics  06/16/2019 11:37 56.04  16.73  16.98 
 101 T806 - Team SuperMarrow  06/16/2019 11:42 56.04  15.21  17.02 
 102 T208 - Team Machine  06/16/2019 12:12 56.04  14.81  16.26 
 103 T205 - Prevent Breast Cancer powered by Endomag  06/16/2019 12:15 56.04  12.98  16.18 
 104 T801 - Mind Over Matter  06/16/2019 12:35 56.04  14.49  16.24 
 105 T203 - JPsDuo  06/16/2019 13:49 56.04  12.69  15.04 
 106 T409 - Serpentine Golden Girls  06/16/2019 13:57 56.04  12.88  15.13 
 107 T210 - Bike Wine Team  06/16/2019 14:42 56.04  11.28  14.54